createdAt,value
2022-11-19T00:01:40.480Z,99767.14
2022-11-19T00:04:11.486Z,99766.09
2022-11-19T00:06:42.344Z,99768.01
2022-11-19T00:09:14.507Z,99770.45
2022-11-19T00:12:02.917Z,99772.24
2022-11-19T00:14:34.846Z,99772.05
2022-11-19T00:17:05.868Z,99775.49
2022-11-19T00:19:36.810Z,99773.46
2022-11-19T00:22:07.641Z,99776.85
2022-11-19T00:24:39.655Z,99776.19
2022-11-19T00:27:10.561Z,99774.34
2022-11-19T00:29:41.675Z,99771.35
2022-11-19T00:32:12.442Z,99774.38
2022-11-19T00:34:43.662Z,99781.73
2022-11-19T00:37:14.966Z,99782.50
2022-11-19T00:39:45.747Z,99786.30
2022-11-19T00:42:16.555Z,99785.38
2022-11-19T00:44:47.457Z,99784.30
2022-11-19T00:47:18.638Z,99784.42
2022-11-19T00:49:49.519Z,99784.41
2022-11-19T00:52:20.631Z,99779.73
2022-11-19T00:54:51.467Z,99783.45
2022-11-19T00:57:22.525Z,99781.02
2022-11-19T00:59:53.260Z,99782.88
2022-11-19T01:02:24.111Z,99783.75
2022-11-19T01:04:54.974Z,99788.80
2022-11-19T01:07:25.818Z,99793.16
2022-11-19T01:09:56.609Z,99795.38
2022-11-19T01:12:27.481Z,99803.73
2022-11-19T01:14:58.383Z,99802.70
2022-11-19T01:17:29.508Z,99807.25
2022-11-19T01:20:00.463Z,99811.48
2022-11-19T01:22:31.292Z,99811.63
2022-11-19T01:25:02.082Z,99808.89
2022-11-19T01:27:34.266Z,99813.02
2022-11-19T01:30:05.771Z,99814.84
2022-11-19T01:32:36.758Z,99817.21
2022-11-19T01:35:09.630Z,99817.38
2022-11-19T01:37:40.666Z,99819.44
2022-11-19T01:40:13.872Z,99818.08
2022-11-19T01:42:50.839Z,99817.24
2022-11-19T01:45:33.448Z,99817.60
2022-11-19T01:48:08.771Z,99818.98
2022-11-19T01:50:44.141Z,99812.46
2022-11-19T01:53:15.943Z,99812.35
2022-11-19T01:55:48.046Z,99813.04
2022-11-19T01:58:24.105Z,99814.02
2022-11-19T02:00:54.948Z,99810.81
2022-11-19T02:03:26.752Z,99811.83
2022-11-19T02:05:58.268Z,99815.30
2022-11-19T02:08:44.045Z,99817.46
2022-11-19T02:11:38.605Z,99818.30
2022-11-19T02:14:29.492Z,99816.80
2022-11-19T02:17:10.885Z,99818.42
2022-11-19T02:20:17.095Z,99817.89
2022-11-19T02:23:17.564Z,99821.23
2022-11-19T02:26:15.519Z,99823.01
2022-11-19T02:28:52.629Z,99825.32
2022-11-19T02:31:27.154Z,99819.61
2022-11-19T02:34:02.860Z,99814.59
2022-11-19T02:36:40.473Z,99820.30
2022-11-19T02:39:17.878Z,99814.22
2022-11-19T02:41:54.922Z,99820.89
2022-11-19T02:44:48.849Z,99822.88
2022-11-19T02:47:23.567Z,99819.69
2022-11-19T02:50:00.559Z,99818.69
2022-11-19T02:52:31.588Z,99814.19
2022-11-19T02:55:02.429Z,99817.56
2022-11-19T02:57:33.262Z,99812.59
2022-11-19T03:00:23.993Z,99815.77
2022-11-19T03:03:17.771Z,99818.60
2022-11-19T03:05:53.470Z,99825.15
2022-11-19T03:08:24.654Z,99825.13
2022-11-19T03:11:05.903Z,99829.47
2022-11-19T03:14:06.036Z,99833.14
2022-11-19T03:16:44.101Z,99837.68
2022-11-19T03:19:24.522Z,99838.83
2022-11-19T03:22:00.913Z,99843.36
2022-11-19T03:24:35.401Z,99846.08
2022-11-19T03:27:13.286Z,99846.92
2022-11-19T03:29:49.876Z,99843.13
2022-11-19T03:32:27.229Z,99847.23
2022-11-19T03:35:05.600Z,99848.38
2022-11-19T03:37:39.981Z,99854.91
2022-11-19T03:40:15.696Z,99855.22
2022-11-19T03:42:50.507Z,99859.03
2022-11-19T03:45:26.124Z,99859.00
2022-11-19T03:47:58.533Z,99862.30
2022-11-19T03:50:34.095Z,99862.81
2022-11-19T03:53:05.337Z,99862.64
2022-11-19T03:55:40.809Z,99867.16
2022-11-19T03:58:11.881Z,99867.72
2022-11-19T04:00:42.971Z,99869.34
2022-11-19T04:03:13.913Z,99873.83
2022-11-19T04:05:44.800Z,99875.56
2022-11-19T04:08:15.774Z,99877.70
2022-11-19T04:10:46.769Z,99879.96
2022-11-19T04:13:17.695Z,99883.07
2022-11-19T04:15:48.666Z,99881.13
2022-11-19T04:18:19.571Z,99882.88
2022-11-19T04:20:50.547Z,99884.27
2022-11-19T04:23:21.493Z,99883.80
2022-11-19T04:25:52.417Z,99884.85
2022-11-19T04:28:23.409Z,99886.64
2022-11-19T04:30:54.760Z,99887.05
2022-11-19T04:33:25.762Z,99886.48
2022-11-19T04:35:56.730Z,99888.48
2022-11-19T04:38:27.707Z,99888.23
2022-11-19T04:40:58.675Z,99893.02
2022-11-19T04:43:29.574Z,99893.89
2022-11-19T04:46:00.620Z,99897.78
2022-11-19T04:48:31.527Z,99899.01
2022-11-19T04:51:02.556Z,99900.13
2022-11-19T04:53:33.562Z,99897.64
2022-11-19T04:56:05.052Z,99900.25
2022-11-19T04:58:36.340Z,99902.19
2022-11-19T05:01:07.873Z,99898.53
2022-11-19T05:03:38.941Z,99903.05
2022-11-19T05:06:10.643Z,99904.58
2022-11-19T05:08:41.736Z,99903.95
2022-11-19T05:11:12.773Z,99901.30
2022-11-19T05:13:43.820Z,99901.13
2022-11-19T05:16:14.848Z,99897.45
2022-11-19T05:18:46.099Z,99902.27
2022-11-19T05:21:17.249Z,99900.58
2022-11-19T05:23:48.201Z,99895.23
2022-11-19T05:26:19.121Z,99898.33
2022-11-19T05:28:50.176Z,99898.58
2022-11-19T05:31:21.121Z,99903.42
2022-11-19T05:33:52.098Z,99909.45
2022-11-19T05:36:23.073Z,99911.53
2022-11-19T05:38:54.108Z,99909.82
2022-11-19T05:41:25.123Z,99912.83
2022-11-19T05:43:56.082Z,99915.52
2022-11-19T05:46:27.048Z,99917.59
2022-11-19T05:48:58.190Z,99919.98
2022-11-19T05:51:29.130Z,99924.74
2022-11-19T05:54:00.330Z,99928.30
2022-11-19T05:56:31.465Z,99934.69
2022-11-19T05:59:02.582Z,99937.37
2022-11-19T06:01:33.757Z,99937.21
2022-11-19T06:04:04.744Z,99936.27
2022-11-19T06:06:35.752Z,99940.20
2022-11-19T06:09:07.084Z,99943.92
2022-11-19T06:11:50.692Z,99949.89
2022-11-19T06:14:24.080Z,99952.02
2022-11-19T06:16:57.114Z,99956.95
2022-11-19T06:19:28.742Z,99957.17
2022-11-19T06:21:59.817Z,99960.55
2022-11-19T06:24:31.093Z,99962.23
2022-11-19T06:27:02.678Z,99967.30
2022-11-19T06:29:33.638Z,99974.17
2022-11-19T06:32:04.714Z,99979.59
2022-11-19T06:34:35.682Z,99982.83
2022-11-19T06:37:06.736Z,99986.19
2022-11-19T06:39:37.649Z,99990.78
2022-11-19T06:42:22.497Z,99996.96
2022-11-19T06:44:53.524Z,100003.42
2022-11-19T06:47:24.511Z,100007.55
2022-11-19T06:49:55.464Z,100009.00
2022-11-19T06:52:26.644Z,100008.25
2022-11-19T06:54:57.639Z,100012.14
2022-11-19T06:57:28.673Z,100016.66
2022-11-19T06:59:59.664Z,100020.95
2022-11-19T07:02:30.703Z,100019.63
2022-11-19T07:05:01.812Z,100023.69
2022-11-19T07:07:34.813Z,100021.20
2022-11-19T07:10:07.328Z,100021.41
2022-11-19T07:12:38.463Z,100023.76
2022-11-19T07:15:11.598Z,100027.45
2022-11-19T07:17:42.997Z,100027.47
2022-11-19T07:20:14.850Z,100027.98
2022-11-19T07:22:46.111Z,100029.11
2022-11-19T07:25:17.431Z,100029.64
2022-11-19T07:27:48.405Z,100033.90
2022-11-19T07:30:20.297Z,100034.79
2022-11-19T07:32:51.307Z,100036.17
2022-11-19T07:35:23.029Z,100038.23
2022-11-19T07:37:54.108Z,100038.64
2022-11-19T07:40:25.812Z,100038.02
2022-11-19T07:42:56.766Z,100038.69
2022-11-19T07:45:28.498Z,100039.55
2022-11-19T07:47:59.465Z,100038.72
2022-11-19T07:50:30.443Z,100042.81
2022-11-19T07:53:02.122Z,100047.04
2022-11-19T07:55:33.122Z,100047.96
2022-11-19T07:58:04.499Z,100045.46
2022-11-19T08:00:35.502Z,100042.42
2022-11-19T08:03:07.629Z,100042.27
2022-11-19T08:05:42.246Z,100044.67
2022-11-19T08:08:13.550Z,100044.78
2022-11-19T08:10:44.611Z,100043.98
2022-11-19T08:13:15.707Z,100042.29
2022-11-19T08:15:47.198Z,100043.45
2022-11-19T08:18:18.385Z,100046.71
2022-11-19T08:20:49.531Z,100049.34
2022-11-19T08:23:23.114Z,100049.15
2022-11-19T08:25:54.338Z,100050.66
2022-11-19T08:28:25.351Z,100049.80
2022-11-19T08:30:56.479Z,100048.31
2022-11-19T08:33:27.479Z,100050.88
2022-11-19T08:35:58.722Z,100055.27
2022-11-19T08:38:32.280Z,100057.63
2022-11-19T08:41:23.136Z,100060.88
2022-11-19T08:43:54.259Z,100061.30
2022-11-19T08:46:25.351Z,100057.85
2022-11-19T08:48:56.589Z,100056.55
2022-11-19T08:51:27.624Z,100060.77
2022-11-19T08:53:58.799Z,100064.92
2022-11-19T08:56:29.812Z,100066.45
2022-11-19T08:59:03.002Z,100066.02
2022-11-19T09:01:34.573Z,100064.82
2022-11-19T09:04:06.165Z,100066.96
2022-11-19T09:06:37.976Z,100059.61
2022-11-19T09:09:09.217Z,100060.59
2022-11-19T09:11:42.937Z,100064.20
2022-11-19T09:14:14.380Z,100063.35
2022-11-19T09:16:45.393Z,100066.52
2022-11-19T09:19:16.467Z,100078.66
2022-11-19T09:21:47.614Z,100072.64
2022-11-19T09:24:18.837Z,100080.98
2022-11-19T09:26:52.795Z,100081.88
2022-11-19T09:29:24.736Z,100082.38
2022-11-19T09:31:55.744Z,100078.98
2022-11-19T09:34:26.731Z,100075.31
2022-11-19T09:36:58.601Z,100071.66
2022-11-19T09:39:29.658Z,100072.18
2022-11-19T09:42:12.852Z,100075.01
2022-11-19T09:45:04.195Z,100072.82
2022-11-19T09:47:49.537Z,100065.52
2022-11-19T09:50:23.606Z,100063.41
2022-11-19T09:53:02.486Z,100062.09
2022-11-19T09:55:36.913Z,100063.54
2022-11-19T09:58:13.375Z,100061.73
2022-11-19T10:00:46.369Z,100058.83
2022-11-19T10:03:21.660Z,100058.88
2022-11-19T10:06:00.533Z,100059.88
2022-11-19T10:08:45.148Z,100060.97
2022-11-19T10:11:32.629Z,100061.14
2022-11-19T10:14:12.766Z,100062.22
2022-11-19T10:16:56.089Z,100067.39
2022-11-19T10:19:40.814Z,100067.95
2022-11-19T10:22:16.482Z,100066.48
2022-11-19T10:24:55.332Z,100062.83
2022-11-19T10:27:33.946Z,100059.34
2022-11-19T10:30:13.946Z,100061.80
2022-11-19T10:32:51.601Z,100064.14
2022-11-19T10:35:28.357Z,100062.73
2022-11-19T10:38:02.382Z,100066.52
2022-11-19T10:40:41.737Z,100069.83
2022-11-19T10:43:23.887Z,100069.02
2022-11-19T10:45:56.890Z,100066.58
2022-11-19T10:48:38.397Z,100066.81
2022-11-19T10:51:19.468Z,100069.39
2022-11-19T10:53:51.830Z,100070.02
2022-11-19T10:56:28.966Z,100071.45
2022-11-19T10:59:07.138Z,100075.83
2022-11-19T11:01:42.158Z,100081.98
2022-11-19T11:04:19.487Z,100091.17
2022-11-19T11:06:55.687Z,100089.61
2022-11-19T11:09:35.254Z,100093.08
2022-11-19T11:12:32.261Z,100090.02
2022-11-19T11:15:18.634Z,100089.30
2022-11-19T11:18:01.953Z,100091.89
2022-11-19T11:20:34.124Z,100093.67
2022-11-19T11:23:11.514Z,100098.77
2022-11-19T11:25:52.122Z,100096.61
2022-11-19T11:28:26.021Z,100099.27
2022-11-19T11:30:59.856Z,100093.12
2022-11-19T11:33:35.130Z,100102.46
2022-11-19T11:36:11.018Z,100105.11
2022-11-19T11:38:49.171Z,100101.16
2022-11-19T11:44:27.214Z,100101.42
2022-11-19T11:47:02.730Z,100098.05
2022-11-19T11:49:37.077Z,100097.75
2022-11-19T11:52:19.255Z,100098.72
2022-11-19T11:55:06.104Z,100097.45
2022-11-19T11:57:51.234Z,100101.40
2022-11-19T12:00:40.270Z,100103.14
2022-11-19T12:03:13.870Z,100104.46
2022-11-19T12:05:55.598Z,100108.07
2022-11-19T12:08:44.313Z,100110.11
2022-11-19T12:11:21.756Z,100109.74
2022-11-19T12:14:00.079Z,100110.74
2022-11-19T12:16:41.986Z,100105.92
2022-11-19T12:19:25.573Z,100104.67
2022-11-19T12:22:04.830Z,100106.32
2022-11-19T12:24:54.582Z,100107.48
2022-11-19T12:27:35.403Z,100110.09
2022-11-19T12:30:13.747Z,100112.35
2022-11-19T12:33:01.946Z,100110.11
2022-11-19T12:35:51.555Z,100115.56
2022-11-19T12:38:40.110Z,100121.61
2022-11-19T12:41:30.457Z,100123.48
2022-11-19T12:44:03.976Z,100125.52
2022-11-19T12:46:48.021Z,100128.35
2022-11-19T12:49:41.677Z,100130.34
2022-11-19T12:52:31.323Z,100134.55
2022-11-19T12:55:11.020Z,100132.77
2022-11-19T12:57:53.074Z,100129.08
2022-11-19T13:00:26.995Z,100128.71
2022-11-19T13:03:15.144Z,100134.58
2022-11-19T13:05:52.185Z,100139.03
2022-11-19T13:08:29.397Z,100139.11
2022-11-19T13:11:11.273Z,100136.86
2022-11-19T13:13:46.542Z,100134.88
2022-11-19T13:16:20.909Z,100131.92
2022-11-19T13:18:55.168Z,100130.66
2022-11-19T13:21:33.093Z,100126.88
2022-11-19T13:24:14.793Z,100132.59
2022-11-19T13:26:46.433Z,100138.88
2022-11-19T13:29:31.152Z,100135.01
2022-11-19T13:32:10.435Z,100139.56
2022-11-19T13:34:49.548Z,100145.63
2022-11-19T13:37:23.882Z,100144.39
2022-11-19T13:40:01.777Z,100149.57
2022-11-19T13:43:17.219Z,100152.02
2022-11-19T13:45:45.983Z,100155.65
2022-11-19T13:48:26.810Z,100153.58
2022-11-19T13:51:02.627Z,100164.52
2022-11-19T13:53:39.300Z,100166.48
2022-11-19T13:56:15.513Z,100166.54
2022-11-19T13:58:50.597Z,100169.80
2022-11-19T14:01:40.326Z,100174.16
2022-11-19T14:04:28.221Z,100175.42
2022-11-19T14:07:20.866Z,100179.39
2022-11-19T14:10:04.446Z,100184.67
2022-11-19T14:12:53.763Z,100185.70
2022-11-19T14:16:04.046Z,100188.04
2022-11-19T14:18:57.668Z,100190.59
2022-11-19T14:22:09.352Z,100190.42
2022-11-19T14:25:14.466Z,100191.42
2022-11-19T14:27:46.157Z,100190.59
2022-11-19T14:30:22.234Z,100188.40
2022-11-19T14:32:54.494Z,100189.25
2022-11-19T14:35:45.534Z,100189.45
2022-11-19T14:38:41.893Z,100191.44
2022-11-19T14:41:28.170Z,100189.23
2022-11-19T14:44:14.433Z,100181.70
2022-11-19T14:46:48.809Z,100182.73
2022-11-19T14:49:31.774Z,100182.98
2022-11-19T14:52:04.235Z,100187.81
2022-11-19T14:54:43.812Z,100190.45
2022-11-19T14:57:29.674Z,100196.36
2022-11-19T15:00:05.668Z,100192.09
2022-11-19T15:02:40.812Z,100187.19
2022-11-19T15:05:20.846Z,100183.30
2022-11-19T15:08:12.842Z,100182.50
2022-11-19T15:11:04.304Z,100184.36
2022-11-19T15:13:36.708Z,100181.82
2022-11-19T15:16:13.776Z,100179.02
2022-11-19T15:19:23.912Z,100178.41
2022-11-19T15:22:43.854Z,100177.44
2022-11-19T15:25:31.288Z,100176.14
2022-11-19T15:28:17.943Z,100180.27
2022-11-19T15:31:05.502Z,100181.51
2022-11-19T15:34:11.597Z,100183.27
2022-11-19T15:36:45.990Z,100184.98
2022-11-19T15:39:27.302Z,100188.91
2022-11-19T15:42:02.727Z,100190.81
2022-11-19T15:44:43.998Z,100186.54
2022-11-19T15:47:19.326Z,100186.84
2022-11-19T15:49:50.039Z,100185.13
2022-11-19T15:52:27.257Z,100183.54
2022-11-19T15:55:13.237Z,100184.23
2022-11-19T15:57:47.089Z,100188.69
2022-11-19T16:00:23.119Z,100193.77
2022-11-19T16:02:56.321Z,100193.61
2022-11-19T16:05:30.843Z,100200.74
2022-11-19T16:08:08.624Z,100207.00
2022-11-19T16:10:43.622Z,100211.80
2022-11-19T16:13:43.398Z,100213.52
2022-11-19T16:16:40.679Z,100211.10
2022-11-19T16:19:13.950Z,100213.50
2022-11-19T16:21:48.951Z,100213.41
2022-11-19T16:24:39.891Z,100213.16
2022-11-19T16:27:20.137Z,100216.97
2022-11-19T16:29:52.079Z,100219.05
2022-11-19T16:32:26.545Z,100223.33
2022-11-19T16:35:11.645Z,100227.83
2022-11-19T16:37:43.560Z,100228.52
2022-11-19T16:40:18.684Z,100225.59
2022-11-19T16:42:53.887Z,100225.79
2022-11-19T16:45:27.947Z,100223.70
2022-11-19T16:48:00.905Z,100227.02
2022-11-19T16:50:36.118Z,100228.81
2022-11-19T16:53:09.613Z,100238.66
2022-11-19T16:55:51.410Z,100240.31
2022-11-19T16:58:29.003Z,100237.41
2022-11-19T17:01:01.800Z,100233.13
2022-11-19T17:03:39.708Z,100227.84
2022-11-19T17:06:25.700Z,100223.65
2022-11-19T17:09:01.738Z,100220.77
2022-11-19T17:12:10.532Z,100221.77
2022-11-19T17:14:54.724Z,100222.68
2022-11-19T17:17:44.510Z,100223.80
2022-11-19T17:20:53.014Z,100216.29
2022-11-19T17:23:26.211Z,100217.84
2022-11-19T17:25:59.196Z,100221.52
2022-11-19T17:28:36.522Z,100222.41
2022-11-19T17:31:16.033Z,100232.63
2022-11-19T17:33:56.687Z,100242.52
2022-11-19T17:36:27.991Z,100249.45
2022-11-19T17:38:59.472Z,100248.98
2022-11-19T17:41:50.298Z,100246.98
2022-11-19T17:44:39.264Z,100243.55
2022-11-19T17:47:23.288Z,100240.95
2022-11-19T17:49:55.259Z,100239.31
2022-11-19T17:52:28.192Z,100239.02
2022-11-19T17:55:03.651Z,100239.36
2022-11-19T17:57:34.629Z,100237.63
2022-11-19T18:00:10.728Z,100236.81
2022-11-19T18:02:42.005Z,100239.87
2022-11-19T18:05:20.930Z,100236.84
2022-11-19T18:07:52.348Z,100240.29
2022-11-19T18:10:23.452Z,100240.45
2022-11-19T18:12:54.770Z,100248.16
2022-11-19T18:15:26.072Z,100247.13
2022-11-19T18:17:57.253Z,100248.69
2022-11-19T18:20:28.404Z,100251.40
2022-11-19T18:23:00.180Z,100257.61
2022-11-19T18:25:31.470Z,100256.11
2022-11-19T18:28:02.718Z,100254.96
2022-11-19T18:30:34.127Z,100255.73
2022-11-19T18:33:05.370Z,100261.95
2022-11-19T18:35:36.636Z,100261.14
2022-11-19T18:38:08.546Z,100265.25
2022-11-19T18:40:39.660Z,100264.16
2022-11-19T18:43:29.072Z,100266.46
2022-11-19T18:46:00.696Z,100265.65
2022-11-19T18:48:31.887Z,100268.70
2022-11-19T18:51:02.956Z,100277.50
2022-11-19T18:53:34.144Z,100279.05
2022-11-19T18:56:05.654Z,100280.96
2022-11-19T18:58:37.116Z,100276.74
2022-11-19T19:01:08.297Z,100275.05
2022-11-19T19:03:39.612Z,100272.17
2022-11-19T19:06:12.093Z,100271.52
2022-11-19T19:08:43.270Z,100269.69
2022-11-19T19:11:32.812Z,100270.86
2022-11-19T19:14:04.216Z,100268.27
2022-11-19T19:16:35.576Z,100267.77
2022-11-19T19:19:06.946Z,100268.13
2022-11-19T19:21:38.538Z,100274.34
2022-11-19T19:24:10.646Z,100272.62
2022-11-19T19:26:41.770Z,100282.08
2022-11-19T19:29:13.063Z,100283.17
2022-11-19T19:31:44.314Z,100283.67
2022-11-19T19:34:15.600Z,100285.38
2022-11-19T19:36:52.930Z,100285.72
2022-11-19T19:39:24.913Z,100290.34
2022-11-19T19:41:57.289Z,100293.42
2022-11-19T19:44:28.688Z,100295.22
2022-11-19T19:47:00.962Z,100294.64
2022-11-19T19:49:36.047Z,100293.79
2022-11-19T19:52:10.335Z,100296.71
2022-11-19T19:54:43.067Z,100302.74
2022-11-19T19:57:15.758Z,100298.48
2022-11-19T19:59:47.009Z,100297.29
2022-11-19T20:02:18.482Z,100295.95
2022-11-19T20:04:49.656Z,100296.84
2022-11-19T20:07:21.177Z,100295.10
2022-11-19T20:09:52.349Z,100292.50
2022-11-19T20:12:23.621Z,100291.01
2022-11-19T20:14:55.438Z,100292.17
2022-11-19T20:17:26.885Z,100293.20
2022-11-19T20:19:58.523Z,100294.73
2022-11-19T20:22:30.742Z,100291.05
2022-11-19T20:25:05.505Z,100290.27
2022-11-19T20:27:36.851Z,100286.33
2022-11-19T20:30:10.321Z,100284.43
2022-11-19T20:32:41.545Z,100280.17
2022-11-19T20:35:12.706Z,100276.04
2022-11-19T20:37:43.927Z,100281.23
2022-11-19T20:40:15.357Z,100282.14
2022-11-19T20:43:04.334Z,100289.98
2022-11-19T20:45:35.861Z,100293.02
2022-11-19T20:48:07.573Z,100291.16
2022-11-19T20:50:38.952Z,100283.11
2022-11-19T20:53:10.153Z,100288.15
2022-11-19T20:56:03.817Z,100284.77
2022-11-19T20:58:33.211Z,100283.29
2022-11-19T21:01:06.243Z,100285.52
2022-11-19T21:03:37.633Z,100280.52
2022-11-19T21:06:09.813Z,100276.79
2022-11-19T21:08:40.893Z,100274.90
2022-11-19T21:11:15.674Z,100273.81
2022-11-19T21:13:47.137Z,100271.14
2022-11-19T21:16:21.086Z,100274.12
2022-11-19T21:18:52.914Z,100269.80
2022-11-19T21:21:25.224Z,100270.54
2022-11-19T21:23:56.910Z,100270.04
2022-11-19T21:26:29.346Z,100275.46
2022-11-19T21:29:01.442Z,100272.95
2022-11-19T21:31:41.804Z,100277.16
2022-11-19T21:34:14.497Z,100278.49
2022-11-19T21:36:47.050Z,100281.01
2022-11-19T21:39:19.678Z,100284.95
2022-11-19T21:41:51.379Z,100284.94
2022-11-19T21:44:22.492Z,100287.13
2022-11-19T21:46:53.705Z,100293.92
2022-11-19T21:49:24.773Z,100298.73
2022-11-19T21:51:56.052Z,100290.75
2022-11-19T21:54:27.171Z,100286.95
2022-11-19T21:56:58.474Z,100284.46
2022-11-19T21:59:29.720Z,100279.98
2022-11-19T22:02:00.856Z,100285.09
2022-11-19T22:04:32.120Z,100290.45
2022-11-19T22:07:03.523Z,100288.90
2022-11-19T22:09:34.907Z,100276.31
2022-11-19T22:12:06.550Z,100283.74
2022-11-19T22:14:37.877Z,100285.57
2022-11-19T22:17:09.362Z,100285.95
2022-11-19T22:19:40.407Z,100286.79
2022-11-19T22:22:11.723Z,100284.50
2022-11-19T22:24:43.026Z,100278.98
2022-11-19T22:27:14.684Z,100279.39
2022-11-19T22:29:45.839Z,100277.67
2022-11-19T22:32:17.024Z,100277.39
2022-11-19T22:34:48.261Z,100273.80
2022-11-19T22:37:19.976Z,100270.23
2022-11-19T22:39:51.146Z,100274.11
2022-11-19T22:42:22.334Z,100273.39
2022-11-19T22:44:53.765Z,100272.05
2022-11-19T22:47:24.796Z,100276.89
2022-11-19T22:49:56.060Z,100279.19
2022-11-19T22:52:27.104Z,100280.92
2022-11-19T22:54:58.434Z,100283.16
2022-11-19T22:57:29.764Z,100283.76
2022-11-19T23:00:01.039Z,100277.11
2022-11-19T23:02:32.310Z,100276.80
2022-11-19T23:05:03.500Z,100274.80
2022-11-19T23:07:34.722Z,100277.23
2022-11-19T23:10:07.225Z,100271.10
2022-11-19T23:12:55.888Z,100270.41
2022-11-19T23:15:28.656Z,100268.39
2022-11-19T23:17:59.902Z,100261.67
2022-11-19T23:20:31.403Z,100259.64
2022-11-19T23:23:02.618Z,100257.83
2022-11-19T23:25:33.619Z,100253.87
2022-11-19T23:28:04.918Z,100254.95
2022-11-19T23:30:36.340Z,100256.41
2022-11-19T23:33:07.363Z,100252.01
2022-11-19T23:35:38.646Z,100249.58
2022-11-19T23:38:10.402Z,100251.77
2022-11-19T23:40:41.738Z,100249.74
2022-11-19T23:43:12.828Z,100247.14
2022-11-19T23:45:43.862Z,100248.94
2022-11-19T23:48:17.055Z,100247.21
2022-11-19T23:50:48.025Z,100252.36
2022-11-19T23:53:19.019Z,100250.77
2022-11-19T23:55:50.352Z,100252.73
2022-11-19T23:58:21.395Z,100252.44
